sensor_id;sensor_type;location;lat;lon;timestamp;P1;durP1;ratioP1;P2;durP2;ratioP2
81056;SDS011;70563;50.084;14.468;2023-08-07T00:01:41;0.95;;;0.20;;
81056;SDS011;70563;50.084;14.468;2023-08-07T00:04:07;0.13;;;0.13;;
81056;SDS011;70563;50.084;14.468;2023-08-07T00:06:32;0.88;;;0.20;;
81056;SDS011;70563;50.084;14.468;2023-08-07T00:08:57;0.52;;;0.20;;
81056;SDS011;70563;50.084;14.468;2023-08-07T00:11:23;0.17;;;0.17;;
81056;SDS011;70563;50.084;14.468;2023-08-07T00:13:48;1.55;;;0.25;;
81056;SDS011;70563;50.084;14.468;2023-08-07T00:16:13;0.50;;;0.50;;
81056;SDS011;70563;50.084;14.468;2023-08-07T00:18:39;0.30;;;0.20;;
81056;SDS011;70563;50.084;14.468;2023-08-07T00:21:04;0.30;;;0.30;;
81056;SDS011;70563;50.084;14.468;2023-08-07T00:23:29;0.13;;;0.10;;
81056;SDS011;70563;50.084;14.468;2023-08-07T00:25:55;1.17;;;0.20;;
81056;SDS011;70563;50.084;14.468;2023-08-07T00:28:20;0.10;;;0.10;;
81056;SDS011;70563;50.084;14.468;2023-08-07T00:30:45;0.20;;;0.10;;
81056;SDS011;70563;50.084;14.468;2023-08-07T00:33:11;0.20;;;0.20;;
81056;SDS011;70563;50.084;14.468;2023-08-07T00:35:36;0.35;;;0.20;;
81056;SDS011;70563;50.084;14.468;2023-08-07T00:38:01;0.20;;;0.20;;
81056;SDS011;70563;50.084;14.468;2023-08-07T00:40:27;0.05;;;0.05;;
81056;SDS011;70563;50.084;14.468;2023-08-07T00:42:53;0.17;;;0.10;;
81056;SDS011;70563;50.084;14.468;2023-08-07T00:45:18;0.20;;;0.20;;
81056;SDS011;70563;50.084;14.468;2023-08-07T00:47:44;0.10;;;0.10;;
81056;SDS011;70563;50.084;14.468;2023-08-07T00:50:09;0.10;;;0.10;;
81056;SDS011;70563;50.084;14.468;2023-08-07T00:52:35;0.20;;;0.20;;
81056;SDS011;70563;50.084;14.468;2023-08-07T00:55:01;0.17;;;0.10;;
81056;SDS011;70563;50.084;14.468;2023-08-07T00:57:27;0.20;;;0.10;;
81056;SDS011;70563;50.084;14.468;2023-08-07T00:59:53;0.90;;;0.20;;
81056;SDS011;70563;50.084;14.468;2023-08-07T01:02:18;0.47;;;0.10;;
81056;SDS011;70563;50.084;14.468;2023-08-07T01:04:44;0.10;;;0.10;;
81056;SDS011;70563;50.084;14.468;2023-08-07T01:07:09;0.20;;;0.10;;
81056;SDS011;70563;50.084;14.468;2023-08-07T01:09:35;0.38;;;0.10;;
81056;SDS011;70563;50.084;14.468;2023-08-07T01:17:16;0.20;;;0.20;;
81056;SDS011;70563;50.084;14.468;2023-08-07T01:19:46;0.10;;;0.10;;
81056;SDS011;70563;50.084;14.468;2023-08-07T01:22:16;0.10;;;0.10;;
81056;SDS011;70563;50.084;14.468;2023-08-07T01:32:53;0.10;;;0.10;;
81056;SDS011;70563;50.084;14.468;2023-08-07T01:35:43;0.20;;;0.10;;
81056;SDS011;70563;50.084;14.468;2023-08-07T01:38:11;0.10;;;0.10;;
81056;SDS011;70563;50.084;14.468;2023-08-07T01:40:40;0.10;;;0.10;;
81056;SDS011;70563;50.084;14.468;2023-08-07T01:43:07;0.08;;;0.08;;
81056;SDS011;70563;50.084;14.468;2023-08-07T01:45:33;0.30;;;0.20;;
81056;SDS011;70563;50.084;14.468;2023-08-07T01:47:58;0.10;;;0.10;;
81056;SDS011;70563;50.084;14.468;2023-08-07T01:50:24;1.17;;;0.20;;
81056;SDS011;70563;50.084;14.468;2023-08-07T01:52:50;0.22;;;0.17;;
81056;SDS011;70563;50.084;14.468;2023-08-07T01:55:17;0.10;;;0.10;;
81056;SDS011;70563;50.084;14.468;2023-08-07T01:57:43;0.08;;;0.08;;
81056;SDS011;70563;50.084;14.468;2023-08-07T02:00:09;0.63;;;0.10;;
81056;SDS011;70563;50.084;14.468;2023-08-07T02:02:36;0.20;;;0.20;;
81056;SDS011;70563;50.084;14.468;2023-08-07T02:05:01;0.10;;;0.05;;
81056;SDS011;70563;50.084;14.468;2023-08-07T02:07:28;0.30;;;0.20;;
81056;SDS011;70563;50.084;14.468;2023-08-07T02:09:53;2.83;;;0.30;;
81056;SDS011;70563;50.084;14.468;2023-08-07T02:12:19;0.60;;;0.13;;
81056;SDS011;70563;50.084;14.468;2023-08-07T02:14:44;0.85;;;0.20;;
81056;SDS011;70563;50.084;14.468;2023-08-07T02:17:09;1.55;;;0.17;;
81056;SDS011;70563;50.084;14.468;2023-08-07T02:19:35;0.28;;;0.20;;
81056;SDS011;70563;50.084;14.468;2023-08-07T02:22:01;0.70;;;0.10;;
81056;SDS011;70563;50.084;14.468;2023-08-07T02:24:26;0.10;;;0.10;;
81056;SDS011;70563;50.084;14.468;2023-08-07T02:26:52;0.20;;;0.10;;
81056;SDS011;70563;50.084;14.468;2023-08-07T02:29:17;0.65;;;0.20;;
81056;SDS011;70563;50.084;14.468;2023-08-07T02:31:42;0.52;;;0.20;;
81056;SDS011;70563;50.084;14.468;2023-08-07T02:34:08;0.10;;;0.10;;
81056;SDS011;70563;50.084;14.468;2023-08-07T02:36:33;0.32;;;0.10;;
81056;SDS011;70563;50.084;14.468;2023-08-07T02:38:58;0.15;;;0.10;;
81056;SDS011;70563;50.084;14.468;2023-08-07T02:41:24;0.38;;;0.10;;
81056;SDS011;70563;50.084;14.468;2023-08-07T02:43:49;0.10;;;0.10;;
81056;SDS011;70563;50.084;14.468;2023-08-07T02:46:14;0.28;;;0.20;;
81056;SDS011;70563;50.084;14.468;2023-08-07T02:48:40;0.38;;;0.38;;
81056;SDS011;70563;50.084;14.468;2023-08-07T02:51:05;0.47;;;0.20;;
81056;SDS011;70563;50.084;14.468;2023-08-07T02:53:31;0.20;;;0.10;;
81056;SDS011;70563;50.084;14.468;2023-08-07T02:55:56;0.32;;;0.30;;
81056;SDS011;70563;50.084;14.468;2023-08-07T02:58:22;0.28;;;0.20;;
81056;SDS011;70563;50.084;14.468;2023-08-07T03:00:47;0.15;;;0.13;;
81056;SDS011;70563;50.084;14.468;2023-08-07T03:03:12;0.20;;;0.20;;
81056;SDS011;70563;50.084;14.468;2023-08-07T03:05:38;0.22;;;0.20;;
81056;SDS011;70563;50.084;14.468;2023-08-07T03:08:03;0.28;;;0.28;;
81056;SDS011;70563;50.084;14.468;2023-08-07T03:10:29;0.20;;;0.20;;
81056;SDS011;70563;50.084;14.468;2023-08-07T03:12:54;0.47;;;0.10;;
81056;SDS011;70563;50.084;14.468;2023-08-07T03:15:19;0.30;;;0.30;;
81056;SDS011;70563;50.084;14.468;2023-08-07T03:17:45;0.10;;;0.10;;
81056;SDS011;70563;50.084;14.468;2023-08-07T03:20:10;0.20;;;0.20;;
81056;SDS011;70563;50.084;14.468;2023-08-07T03:22:36;0.52;;;0.20;;
81056;SDS011;70563;50.084;14.468;2023-08-07T03:25:01;0.40;;;0.10;;
81056;SDS011;70563;50.084;14.468;2023-08-07T03:27:27;0.30;;;0.10;;
81056;SDS011;70563;50.084;14.468;2023-08-07T03:29:53;0.15;;;0.15;;
81056;SDS011;70563;50.084;14.468;2023-08-07T03:32:18;0.10;;;0.10;;
81056;SDS011;70563;50.084;14.468;2023-08-07T03:34:43;0.95;;;0.22;;
81056;SDS011;70563;50.084;14.468;2023-08-07T03:37:09;0.38;;;0.13;;
81056;SDS011;70563;50.084;14.468;2023-08-07T03:39:34;0.35;;;0.20;;
81056;SDS011;70563;50.084;14.468;2023-08-07T03:42:00;0.20;;;0.10;;
81056;SDS011;70563;50.084;14.468;2023-08-07T03:44:25;1.05;;;0.20;;
81056;SDS011;70563;50.084;14.468;2023-08-07T03:46:50;0.43;;;0.10;;
81056;SDS011;70563;50.084;14.468;2023-08-07T03:49:16;0.30;;;0.30;;
81056;SDS011;70563;50.084;14.468;2023-08-07T03:51:42;0.10;;;0.10;;
81056;SDS011;70563;50.084;14.468;2023-08-07T03:54:07;0.45;;;0.30;;
81056;SDS011;70563;50.084;14.468;2023-08-07T03:56:32;0.10;;;0.10;;
81056;SDS011;70563;50.084;14.468;2023-08-07T03:59:01;1.00;;;0.20;;
81056;SDS011;70563;50.084;14.468;2023-08-07T04:01:27;0.75;;;0.10;;
81056;SDS011;70563;50.084;14.468;2023-08-07T04:03:52;0.10;;;0.10;;
81056;SDS011;70563;50.084;14.468;2023-08-07T04:06:18;0.15;;;0.13;;
81056;SDS011;70563;50.084;14.468;2023-08-07T04:08:46;0.10;;;0.10;;
81056;SDS011;70563;50.084;14.468;2023-08-07T04:11:12;0.10;;;0.10;;
81056;SDS011;70563;50.084;14.468;2023-08-07T04:13:38;1.15;;;0.13;;
81056;SDS011;70563;50.084;14.468;2023-08-07T04:16:03;0.38;;;0.38;;
81056;SDS011;70563;50.084;14.468;2023-08-07T04:18:29;0.30;;;0.25;;
81056;SDS011;70563;50.084;14.468;2023-08-07T04:20:56;0.40;;;0.22;;
81056;SDS011;70563;50.084;14.468;2023-08-07T04:23:23;0.30;;;0.30;;
81056;SDS011;70563;50.084;14.468;2023-08-07T04:25:48;0.17;;;0.15;;
81056;SDS011;70563;50.084;14.468;2023-08-07T04:28:14;1.10;;;0.20;;
81056;SDS011;70563;50.084;14.468;2023-08-07T04:30:40;0.73;;;0.55;;
81056;SDS011;70563;50.084;14.468;2023-08-07T04:33:06;4.78;;;0.52;;
81056;SDS011;70563;50.084;14.468;2023-08-07T04:35:32;0.95;;;0.22;;
81056;SDS011;70563;50.084;14.468;2023-08-07T04:37:57;1.08;;;0.20;;
81056;SDS011;70563;50.084;14.468;2023-08-07T04:40:22;1.95;;;0.40;;
81056;SDS011;70563;50.084;14.468;2023-08-07T04:42:51;0.82;;;0.30;;
81056;SDS011;70563;50.084;14.468;2023-08-07T04:45:17;1.30;;;0.30;;
81056;SDS011;70563;50.084;14.468;2023-08-07T04:47:42;0.30;;;0.20;;
81056;SDS011;70563;50.084;14.468;2023-08-07T04:50:07;0.77;;;0.30;;
81056;SDS011;70563;50.084;14.468;2023-08-07T04:52:33;1.25;;;0.30;;
81056;SDS011;70563;50.084;14.468;2023-08-07T04:55:02;0.38;;;0.28;;
81056;SDS011;70563;50.084;14.468;2023-08-07T04:57:27;0.35;;;0.20;;
81056;SDS011;70563;50.084;14.468;2023-08-07T04:59:52;1.02;;;0.20;;
81056;SDS011;70563;50.084;14.468;2023-08-07T05:02:18;0.32;;;0.20;;
81056;SDS011;70563;50.084;14.468;2023-08-07T05:04:44;0.93;;;0.20;;
81056;SDS011;70563;50.084;14.468;2023-08-07T05:07:09;0.20;;;0.20;;
81056;SDS011;70563;50.084;14.468;2023-08-07T05:09:35;0.63;;;0.22;;
81056;SDS011;70563;50.084;14.468;2023-08-07T05:12:00;0.50;;;0.30;;
81056;SDS011;70563;50.084;14.468;2023-08-07T05:14:26;2.40;;;0.75;;
81056;SDS011;70563;50.084;14.468;2023-08-07T05:16:52;0.70;;;0.20;;
81056;SDS011;70563;50.084;14.468;2023-08-07T05:19:17;1.05;;;0.65;;
81056;SDS011;70563;50.084;14.468;2023-08-07T05:21:42;1.15;;;0.40;;
81056;SDS011;70563;50.084;14.468;2023-08-07T05:24:08;0.25;;;0.25;;
81056;SDS011;70563;50.084;14.468;2023-08-07T05:26:33;2.05;;;0.50;;
81056;SDS011;70563;50.084;14.468;2023-08-07T05:28:59;0.82;;;0.50;;
81056;SDS011;70563;50.084;14.468;2023-08-07T05:31:24;0.30;;;0.20;;
81056;SDS011;70563;50.084;14.468;2023-08-07T05:33:50;0.85;;;0.85;;
81056;SDS011;70563;50.084;14.468;2023-08-07T05:36:15;0.40;;;0.28;;
81056;SDS011;70563;50.084;14.468;2023-08-07T05:38:41;1.02;;;0.30;;
81056;SDS011;70563;50.084;14.468;2023-08-07T05:41:08;0.68;;;0.40;;
81056;SDS011;70563;50.084;14.468;2023-08-07T05:43:33;0.45;;;0.38;;
81056;SDS011;70563;50.084;14.468;2023-08-07T05:45:59;4.03;;;0.40;;
81056;SDS011;70563;50.084;14.468;2023-08-07T05:48:24;1.48;;;0.45;;
81056;SDS011;70563;50.084;14.468;2023-08-07T05:50:51;0.30;;;0.30;;
81056;SDS011;70563;50.084;14.468;2023-08-07T05:53:17;1.88;;;0.30;;
81056;SDS011;70563;50.084;14.468;2023-08-07T05:55:42;0.68;;;0.35;;
81056;SDS011;70563;50.084;14.468;2023-08-07T05:58:07;3.90;;;0.50;;
81056;SDS011;70563;50.084;14.468;2023-08-07T06:00:33;1.55;;;0.50;;
81056;SDS011;70563;50.084;14.468;2023-08-07T06:02:58;0.93;;;0.50;;
81056;SDS011;70563;50.084;14.468;2023-08-07T06:05:24;1.52;;;0.50;;
81056;SDS011;70563;50.084;14.468;2023-08-07T06:07:49;0.55;;;0.40;;
81056;SDS011;70563;50.084;14.468;2023-08-07T06:10:15;1.48;;;0.35;;
81056;SDS011;70563;50.084;14.468;2023-08-07T06:12:40;1.35;;;0.40;;
81056;SDS011;70563;50.084;14.468;2023-08-07T06:15:06;0.65;;;0.35;;
81056;SDS011;70563;50.084;14.468;2023-08-07T06:17:31;1.58;;;0.50;;
81056;SDS011;70563;50.084;14.468;2023-08-07T06:19:57;2.75;;;0.40;;
81056;SDS011;70563;50.084;14.468;2023-08-07T06:22:22;1.65;;;0.50;;
81056;SDS011;70563;50.084;14.468;2023-08-07T06:24:47;2.03;;;0.47;;
81056;SDS011;70563;50.084;14.468;2023-08-07T06:27:13;1.27;;;0.80;;
81056;SDS011;70563;50.084;14.468;2023-08-07T06:29:39;0.57;;;0.43;;
81056;SDS011;70563;50.084;14.468;2023-08-07T06:32:04;1.13;;;0.50;;
81056;SDS011;70563;50.084;14.468;2023-08-07T06:34:31;1.63;;;0.55;;
81056;SDS011;70563;50.084;14.468;2023-08-07T06:36:56;2.20;;;0.80;;
81056;SDS011;70563;50.084;14.468;2023-08-07T06:39:21;0.98;;;0.55;;
81056;SDS011;70563;50.084;14.468;2023-08-07T06:41:47;0.73;;;0.47;;
81056;SDS011;70563;50.084;14.468;2023-08-07T06:44:12;0.77;;;0.60;;
81056;SDS011;70563;50.084;14.468;2023-08-07T06:46:38;0.60;;;0.50;;
81056;SDS011;70563;50.084;14.468;2023-08-07T06:49:03;1.35;;;0.80;;
81056;SDS011;70563;50.084;14.468;2023-08-07T06:51:28;2.13;;;0.80;;
81056;SDS011;70563;50.084;14.468;2023-08-07T06:53:54;1.73;;;0.60;;
81056;SDS011;70563;50.084;14.468;2023-08-07T06:56:19;0.82;;;0.57;;
81056;SDS011;70563;50.084;14.468;2023-08-07T06:58:45;0.65;;;0.52;;
81056;SDS011;70563;50.084;14.468;2023-08-07T07:01:10;1.52;;;0.80;;
81056;SDS011;70563;50.084;14.468;2023-08-07T07:03:36;2.20;;;0.60;;
81056;SDS011;70563;50.084;14.468;2023-08-07T07:06:01;2.70;;;0.80;;
81056;SDS011;70563;50.084;14.468;2023-08-07T07:08:26;1.85;;;0.88;;
81056;SDS011;70563;50.084;14.468;2023-08-07T07:10:52;1.33;;;0.70;;
81056;SDS011;70563;50.084;14.468;2023-08-07T07:13:17;1.17;;;0.70;;
81056;SDS011;70563;50.084;14.468;2023-08-07T07:15:43;2.50;;;1.20;;
81056;SDS011;70563;50.084;14.468;2023-08-07T07:18:08;1.98;;;1.23;;
81056;SDS011;70563;50.084;14.468;2023-08-07T07:20:33;1.85;;;1.00;;
81056;SDS011;70563;50.084;14.468;2023-08-07T07:22:59;1.38;;;0.90;;
81056;SDS011;70563;50.084;14.468;2023-08-07T07:25:24;2.08;;;0.90;;
81056;SDS011;70563;50.084;14.468;2023-08-07T07:27:49;1.95;;;1.00;;
81056;SDS011;70563;50.084;14.468;2023-08-07T07:30:15;5.05;;;1.10;;
81056;SDS011;70563;50.084;14.468;2023-08-07T07:32:40;1.55;;;0.90;;
81056;SDS011;70563;50.084;14.468;2023-08-07T07:35:05;2.72;;;1.17;;
81056;SDS011;70563;50.084;14.468;2023-08-07T07:37:31;2.38;;;1.58;;
81056;SDS011;70563;50.084;14.468;2023-08-07T07:39:57;1.90;;;1.17;;
81056;SDS011;70563;50.084;14.468;2023-08-07T07:42:22;2.17;;;1.05;;
81056;SDS011;70563;50.084;14.468;2023-08-07T07:44:48;2.65;;;1.15;;
81056;SDS011;70563;50.084;14.468;2023-08-07T07:47:13;3.03;;;1.33;;
81056;SDS011;70563;50.084;14.468;2023-08-07T07:49:38;3.80;;;1.40;;
81056;SDS011;70563;50.084;14.468;2023-08-07T07:52:04;3.85;;;1.20;;
81056;SDS011;70563;50.084;14.468;2023-08-07T07:54:30;4.18;;;1.33;;
81056;SDS011;70563;50.084;14.468;2023-08-07T07:56:56;3.15;;;1.25;;
81056;SDS011;70563;50.084;14.468;2023-08-07T07:59:21;1.73;;;0.90;;
81056;SDS011;70563;50.084;14.468;2023-08-07T08:01:46;2.00;;;1.08;;
81056;SDS011;70563;50.084;14.468;2023-08-07T08:04:12;2.05;;;1.15;;
81056;SDS011;70563;50.084;14.468;2023-08-07T08:06:37;2.53;;;0.90;;
81056;SDS011;70563;50.084;14.468;2023-08-07T08:09:03;3.83;;;1.30;;
81056;SDS011;70563;50.084;14.468;2023-08-07T08:11:29;2.70;;;1.20;;
81056;SDS011;70563;50.084;14.468;2023-08-07T08:13:55;3.65;;;1.35;;
81056;SDS011;70563;50.084;14.468;2023-08-07T08:16:20;1.60;;;1.00;;
81056;SDS011;70563;50.084;14.468;2023-08-07T08:18:46;1.17;;;0.80;;
81056;SDS011;70563;50.084;14.468;2023-08-07T08:21:12;1.83;;;0.95;;
81056;SDS011;70563;50.084;14.468;2023-08-07T08:23:37;1.98;;;0.80;;
81056;SDS011;70563;50.084;14.468;2023-08-07T08:26:02;1.85;;;1.20;;
81056;SDS011;70563;50.084;14.468;2023-08-07T08:28:28;1.98;;;0.80;;
81056;SDS011;70563;50.084;14.468;2023-08-07T08:30:53;2.72;;;0.93;;
81056;SDS011;70563;50.084;14.468;2023-08-07T08:33:19;1.35;;;0.80;;
81056;SDS011;70563;50.084;14.468;2023-08-07T08:35:44;1.83;;;0.68;;
81056;SDS011;70563;50.084;14.468;2023-08-07T08:38:10;1.83;;;0.90;;
81056;SDS011;70563;50.084;14.468;2023-08-07T08:40:36;1.00;;;0.70;;
81056;SDS011;70563;50.084;14.468;2023-08-07T08:43:03;1.02;;;0.60;;
81056;SDS011;70563;50.084;14.468;2023-08-07T08:45:30;1.55;;;0.80;;
81056;SDS011;70563;50.084;14.468;2023-08-07T08:48:01;1.45;;;0.70;;
81056;SDS011;70563;50.084;14.468;2023-08-07T08:50:29;0.88;;;0.40;;
81056;SDS011;70563;50.084;14.468;2023-08-07T08:52:58;1.73;;;0.90;;
81056;SDS011;70563;50.084;14.468;2023-08-07T08:55:25;0.80;;;0.52;;
81056;SDS011;70563;50.084;14.468;2023-08-07T08:57:52;0.98;;;0.80;;
81056;SDS011;70563;50.084;14.468;2023-08-07T09:00:18;0.90;;;0.70;;
81056;SDS011;70563;50.084;14.468;2023-08-07T09:02:47;1.48;;;0.50;;
81056;SDS011;70563;50.084;14.468;2023-08-07T09:05:14;0.65;;;0.60;;
81056;SDS011;70563;50.084;14.468;2023-08-07T09:07:41;0.88;;;0.50;;
81056;SDS011;70563;50.084;14.468;2023-08-07T09:10:07;1.27;;;0.88;;
81056;SDS011;70563;50.084;14.468;2023-08-07T09:12:34;0.73;;;0.60;;
81056;SDS011;70563;50.084;14.468;2023-08-07T09:15:04;1.30;;;0.60;;
81056;SDS011;70563;50.084;14.468;2023-08-07T09:17:33;1.48;;;0.68;;
81056;SDS011;70563;50.084;14.468;2023-08-07T09:20:03;2.22;;;0.88;;
81056;SDS011;70563;50.084;14.468;2023-08-07T09:22:31;2.80;;;0.90;;
81056;SDS011;70563;50.084;14.468;2023-08-07T09:24:56;0.90;;;0.63;;
81056;SDS011;70563;50.084;14.468;2023-08-07T09:27:25;1.20;;;1.00;;
81056;SDS011;70563;50.084;14.468;2023-08-07T09:29:51;1.73;;;0.85;;
81056;SDS011;70563;50.084;14.468;2023-08-07T09:32:19;4.95;;;1.95;;
81056;SDS011;70563;50.084;14.468;2023-08-07T09:34:47;1.20;;;0.80;;
81056;SDS011;70563;50.084;14.468;2023-08-07T09:37:14;1.42;;;1.02;;
81056;SDS011;70563;50.084;14.468;2023-08-07T09:39:40;1.52;;;1.00;;
81056;SDS011;70563;50.084;14.468;2023-08-07T09:42:12;0.85;;;0.55;;
81056;SDS011;70563;50.084;14.468;2023-08-07T09:44:40;1.17;;;0.70;;
81056;SDS011;70563;50.084;14.468;2023-08-07T09:47:12;1.02;;;0.60;;
81056;SDS011;70563;50.084;14.468;2023-08-07T09:49:42;0.95;;;0.68;;
81056;SDS011;70563;50.084;14.468;2023-08-07T09:52:08;1.08;;;0.60;;
81056;SDS011;70563;50.084;14.468;2023-08-07T09:54:35;1.73;;;0.77;;
81056;SDS011;70563;50.084;14.468;2023-08-07T09:57:01;1.20;;;0.70;;
81056;SDS011;70563;50.084;14.468;2023-08-07T09:59:27;2.35;;;0.70;;
81056;SDS011;70563;50.084;14.468;2023-08-07T10:01:54;1.52;;;0.75;;
81056;SDS011;70563;50.084;14.468;2023-08-07T10:04:21;0.77;;;0.52;;
81056;SDS011;70563;50.084;14.468;2023-08-07T10:06:46;1.88;;;0.60;;
81056;SDS011;70563;50.084;14.468;2023-08-07T10:09:12;0.80;;;0.63;;
81056;SDS011;70563;50.084;14.468;2023-08-07T10:11:38;1.98;;;0.70;;
81056;SDS011;70563;50.084;14.468;2023-08-07T10:14:04;0.70;;;0.50;;
81056;SDS011;70563;50.084;14.468;2023-08-07T10:16:30;0.95;;;0.50;;
81056;SDS011;70563;50.084;14.468;2023-08-07T10:18:55;0.68;;;0.60;;
81056;SDS011;70563;50.084;14.468;2023-08-07T10:21:21;0.60;;;0.43;;
81056;SDS011;70563;50.084;14.468;2023-08-07T10:23:48;2.47;;;0.60;;
81056;SDS011;70563;50.084;14.468;2023-08-07T10:26:18;0.90;;;0.68;;
81056;SDS011;70563;50.084;14.468;2023-08-07T10:28:46;1.80;;;0.70;;
81056;SDS011;70563;50.084;14.468;2023-08-07T10:31:12;1.15;;;0.70;;
81056;SDS011;70563;50.084;14.468;2023-08-07T10:33:40;0.50;;;0.43;;
81056;SDS011;70563;50.084;14.468;2023-08-07T10:36:09;1.02;;;0.60;;
81056;SDS011;70563;50.084;14.468;2023-08-07T10:38:35;0.50;;;0.47;;
81056;SDS011;70563;50.084;14.468;2023-08-07T10:41:13;0.93;;;0.60;;
81056;SDS011;70563;50.084;14.468;2023-08-07T10:43:40;2.15;;;1.15;;
81056;SDS011;70563;50.084;14.468;2023-08-07T10:46:10;0.88;;;0.70;;
81056;SDS011;70563;50.084;14.468;2023-08-07T10:48:37;1.60;;;0.88;;
81056;SDS011;70563;50.084;14.468;2023-08-07T10:51:04;0.88;;;0.65;;
81056;SDS011;70563;50.084;14.468;2023-08-07T10:56:04;1.65;;;0.90;;
81056;SDS011;70563;50.084;14.468;2023-08-07T10:58:36;2.03;;;0.60;;
81056;SDS011;70563;50.084;14.468;2023-08-07T11:01:49;3.85;;;0.70;;
81056;SDS011;70563;50.084;14.468;2023-08-07T11:03:55;11.93;;;1.33;;
81056;SDS011;70563;50.084;14.468;2023-08-07T11:06:22;0.40;;;0.32;;
81056;SDS011;70563;50.084;14.468;2023-08-07T11:08:49;2.00;;;1.00;;
81056;SDS011;70563;50.084;14.468;2023-08-07T11:11:15;1.25;;;0.52;;
81056;SDS011;70563;50.084;14.468;2023-08-07T11:13:41;2.60;;;0.55;;
81056;SDS011;70563;50.084;14.468;2023-08-07T11:16:06;1.23;;;0.70;;
81056;SDS011;70563;50.084;14.468;2023-08-07T11:18:32;0.52;;;0.40;;
81056;SDS011;70563;50.084;14.468;2023-08-07T11:20:58;1.05;;;0.60;;
81056;SDS011;70563;50.084;14.468;2023-08-07T11:23:24;1.33;;;0.50;;
81056;SDS011;70563;50.084;14.468;2023-08-07T11:25:51;0.73;;;0.60;;
81056;SDS011;70563;50.084;14.468;2023-08-07T11:28:20;0.75;;;0.52;;
81056;SDS011;70563;50.084;14.468;2023-08-07T11:30:49;2.67;;;0.88;;
81056;SDS011;70563;50.084;14.468;2023-08-07T11:33:18;0.82;;;0.60;;
81056;SDS011;70563;50.084;14.468;2023-08-07T11:35:44;0.38;;;0.35;;
81056;SDS011;70563;50.084;14.468;2023-08-07T11:38:10;1.40;;;0.60;;
81056;SDS011;70563;50.084;14.468;2023-08-07T11:40:36;0.82;;;0.63;;
81056;SDS011;70563;50.084;14.468;2023-08-07T11:43:01;0.68;;;0.50;;
81056;SDS011;70563;50.084;14.468;2023-08-07T11:45:27;0.90;;;0.60;;
81056;SDS011;70563;50.084;14.468;2023-08-07T11:47:53;0.80;;;0.50;;
81056;SDS011;70563;50.084;14.468;2023-08-07T11:50:21;1.15;;;0.68;;
81056;SDS011;70563;50.084;14.468;2023-08-07T11:52:47;1.52;;;0.65;;
81056;SDS011;70563;50.084;14.468;2023-08-07T11:55:16;0.95;;;0.73;;
81056;SDS011;70563;50.084;14.468;2023-08-07T11:57:44;1.92;;;0.40;;
81056;SDS011;70563;50.084;14.468;2023-08-07T12:00:11;1.15;;;0.63;;
81056;SDS011;70563;50.084;14.468;2023-08-07T12:02:41;1.90;;;0.75;;
81056;SDS011;70563;50.084;14.468;2023-08-07T12:05:10;0.85;;;0.60;;
81056;SDS011;70563;50.084;14.468;2023-08-07T12:07:36;1.55;;;0.57;;
81056;SDS011;70563;50.084;14.468;2023-08-07T12:10:11;2.42;;;0.77;;
81056;SDS011;70563;50.084;14.468;2023-08-07T12:12:37;0.75;;;0.40;;
81056;SDS011;70563;50.084;14.468;2023-08-07T12:15:05;0.90;;;0.55;;
81056;SDS011;70563;50.084;14.468;2023-08-07T12:17:32;2.63;;;0.88;;
81056;SDS011;70563;50.084;14.468;2023-08-07T12:19:57;0.95;;;0.73;;
81056;SDS011;70563;50.084;14.468;2023-08-07T12:22:23;1.10;;;0.68;;
81056;SDS011;70563;50.084;14.468;2023-08-07T12:24:51;3.65;;;0.60;;
81056;SDS011;70563;50.084;14.468;2023-08-07T12:27:17;0.73;;;0.60;;
81056;SDS011;70563;50.084;14.468;2023-08-07T12:29:43;0.73;;;0.52;;
81056;SDS011;70563;50.084;14.468;2023-08-07T12:32:08;1.13;;;0.50;;
81056;SDS011;70563;50.084;14.468;2023-08-07T12:34:34;0.77;;;0.68;;
81056;SDS011;70563;50.084;14.468;2023-08-07T12:37:01;0.93;;;0.40;;
81056;SDS011;70563;50.084;14.468;2023-08-07T12:39:26;0.52;;;0.43;;
81056;SDS011;70563;50.084;14.468;2023-08-07T12:41:51;1.42;;;0.50;;
81056;SDS011;70563;50.084;14.468;2023-08-07T12:44:17;0.80;;;0.50;;
81056;SDS011;70563;50.084;14.468;2023-08-07T12:46:42;1.00;;;0.57;;
81056;SDS011;70563;50.084;14.468;2023-08-07T12:49:11;1.27;;;0.65;;
81056;SDS011;70563;50.084;14.468;2023-08-07T12:51:36;0.80;;;0.52;;
81056;SDS011;70563;50.084;14.468;2023-08-07T12:54:02;2.83;;;0.90;;
81056;SDS011;70563;50.084;14.468;2023-08-07T12:56:27;1.77;;;0.95;;
81056;SDS011;70563;50.084;14.468;2023-08-07T12:58:52;1.40;;;0.70;;
81056;SDS011;70563;50.084;14.468;2023-08-07T13:01:18;0.75;;;0.52;;
81056;SDS011;70563;50.084;14.468;2023-08-07T13:03:43;0.60;;;0.40;;
81056;SDS011;70563;50.084;14.468;2023-08-07T13:06:08;0.77;;;0.50;;
81056;SDS011;70563;50.084;14.468;2023-08-07T13:08:36;1.02;;;0.40;;
81056;SDS011;70563;50.084;14.468;2023-08-07T13:11:02;1.42;;;0.60;;
81056;SDS011;70563;50.084;14.468;2023-08-07T13:13:27;1.42;;;0.70;;
81056;SDS011;70563;50.084;14.468;2023-08-07T13:15:53;1.50;;;0.65;;
81056;SDS011;70563;50.084;14.468;2023-08-07T13:18:18;3.45;;;1.33;;
81056;SDS011;70563;50.084;14.468;2023-08-07T13:20:44;0.60;;;0.50;;
81056;SDS011;70563;50.084;14.468;2023-08-07T13:23:10;0.73;;;0.40;;
81056;SDS011;70563;50.084;14.468;2023-08-07T13:25:36;1.30;;;0.68;;
81056;SDS011;70563;50.084;14.468;2023-08-07T13:28:02;1.05;;;0.50;;
81056;SDS011;70563;50.084;14.468;2023-08-07T13:30:31;0.90;;;0.43;;
81056;SDS011;70563;50.084;14.468;2023-08-07T13:32:57;1.52;;;0.50;;
81056;SDS011;70563;50.084;14.468;2023-08-07T13:35:23;1.23;;;0.50;;
81056;SDS011;70563;50.084;14.468;2023-08-07T13:37:48;0.63;;;0.40;;
81056;SDS011;70563;50.084;14.468;2023-08-07T13:40:13;0.60;;;0.30;;
81056;SDS011;70563;50.084;14.468;2023-08-07T13:42:39;0.75;;;0.50;;
81056;SDS011;70563;50.084;14.468;2023-08-07T13:45:04;1.23;;;0.45;;
81056;SDS011;70563;50.084;14.468;2023-08-07T13:47:30;1.38;;;0.68;;
81056;SDS011;70563;50.084;14.468;2023-08-07T13:49:55;0.57;;;0.32;;
81056;SDS011;70563;50.084;14.468;2023-08-07T13:52:23;1.42;;;0.43;;
81056;SDS011;70563;50.084;14.468;2023-08-07T13:54:48;1.77;;;0.38;;
81056;SDS011;70563;50.084;14.468;2023-08-07T13:57:15;2.53;;;0.50;;
81056;SDS011;70563;50.084;14.468;2023-08-07T13:59:40;0.75;;;0.50;;
81056;SDS011;70563;50.084;14.468;2023-08-07T14:02:06;0.43;;;0.40;;
81056;SDS011;70563;50.084;14.468;2023-08-07T14:04:31;0.57;;;0.40;;
81056;SDS011;70563;50.084;14.468;2023-08-07T14:06:57;1.67;;;0.38;;
81056;SDS011;70563;50.084;14.468;2023-08-07T14:09:23;0.40;;;0.30;;
81056;SDS011;70563;50.084;14.468;2023-08-07T14:11:49;1.15;;;0.40;;
81056;SDS011;70563;50.084;14.468;2023-08-07T14:14:15;1.65;;;0.50;;
81056;SDS011;70563;50.084;14.468;2023-08-07T14:16:40;1.05;;;0.30;;
81056;SDS011;70563;50.084;14.468;2023-08-07T14:19:06;1.38;;;0.43;;
81056;SDS011;70563;50.084;14.468;2023-08-07T14:21:31;0.60;;;0.50;;
81056;SDS011;70563;50.084;14.468;2023-08-07T14:23:56;0.75;;;0.32;;
81056;SDS011;70563;50.084;14.468;2023-08-07T14:26:22;0.70;;;0.30;;
81056;SDS011;70563;50.084;14.468;2023-08-07T14:28:47;2.75;;;0.50;;
81056;SDS011;70563;50.084;14.468;2023-08-07T14:31:12;0.60;;;0.30;;
81056;SDS011;70563;50.084;14.468;2023-08-07T14:33:38;0.98;;;0.60;;
81056;SDS011;70563;50.084;14.468;2023-08-07T14:36:04;0.75;;;0.43;;
81056;SDS011;70563;50.084;14.468;2023-08-07T14:38:29;0.70;;;0.43;;
81056;SDS011;70563;50.084;14.468;2023-08-07T14:40:55;0.93;;;0.40;;
81056;SDS011;70563;50.084;14.468;2023-08-07T14:43:21;2.75;;;0.57;;